sensor_id;sensor_type;location;lat;lon;timestamp;pressure;altitude;pressure_sealevel;temperature;humidity
72798;BME280;61084;55.816;37.036;2023-04-30T00:00:08;99836.66;;;3.80;56.01
72798;BME280;61084;55.816;37.036;2023-04-30T00:02:38;99844.47;;;3.77;55.99
72798;BME280;61084;55.816;37.036;2023-04-30T00:05:04;99846.25;;;3.75;55.90
72798;BME280;61084;55.816;37.036;2023-04-30T00:07:31;99851.50;;;3.72;55.98
72798;BME280;61084;55.816;37.036;2023-04-30T00:09:57;99858.44;;;3.71;56.29
72798;BME280;61084;55.816;37.036;2023-04-30T00:12:23;99855.00;;;3.71;56.02
72798;BME280;61084;55.816;37.036;2023-04-30T00:14:49;99857.63;;;3.69;55.99
72798;BME280;61084;55.816;37.036;2023-04-30T00:17:16;99861.03;;;3.70;55.90
72798;BME280;61084;55.816;37.036;2023-04-30T00:19:42;99864.53;;;3.69;55.80
72798;BME280;61084;55.816;37.036;2023-04-30T00:22:08;99860.22;;;3.68;55.87
72798;BME280;61084;55.816;37.036;2023-04-30T00:24:34;99863.72;;;3.67;56.17
72798;BME280;61084;55.816;37.036;2023-04-30T00:27:00;99870.69;;;3.65;56.23
72798;BME280;61084;55.816;37.036;2023-04-30T00:29:26;99873.28;;;3.63;56.23
72798;BME280;61084;55.816;37.036;2023-04-30T00:31:51;99876.81;;;3.59;56.41
72798;BME280;61084;55.816;37.036;2023-04-30T00:34:17;99872.59;;;3.54;56.73
72798;BME280;61084;55.816;37.036;2023-04-30T00:36:43;99876.09;;;3.51;56.65
72798;BME280;61084;55.816;37.036;2023-04-30T00:39:09;99871.78;;;3.50;56.48
72798;BME280;61084;55.816;37.036;2023-04-30T00:41:36;99876.13;;;3.50;56.52
72798;BME280;61084;55.816;37.036;2023-04-30T00:44:02;99875.28;;;3.49;56.72
72798;BME280;61084;55.816;37.036;2023-04-30T00:46:28;99880.50;;;3.48;56.57
72798;BME280;61084;55.816;37.036;2023-04-30T00:48:53;99880.50;;;3.46;56.87
72798;BME280;61084;55.816;37.036;2023-04-30T00:51:19;99877.06;;;3.44;57.01
72798;BME280;61084;55.816;37.036;2023-04-30T00:53:45;99877.94;;;3.45;56.89
72798;BME280;61084;55.816;37.036;2023-04-30T00:56:12;99875.31;;;3.46;57.00
72798;BME280;61084;55.816;37.036;2023-04-30T00:58:41;99875.31;;;3.46;57.17
72798;BME280;61084;55.816;37.036;2023-04-30T01:01:07;99872.72;;;3.46;56.84
72798;BME280;61084;55.816;37.036;2023-04-30T01:03:33;99873.63;;;3.44;56.97
72798;BME280;61084;55.816;37.036;2023-04-30T01:06:19;99871.97;;;3.40;57.15
72798;BME280;61084;55.816;37.036;2023-04-30T01:08:46;99871.19;;;3.35;57.18
72798;BME280;61084;55.816;37.036;2023-04-30T01:14:09;99875.63;;;3.28;57.98
72798;BME280;61084;55.816;37.036;2023-04-30T01:16:45;99879.09;;;3.27;57.51
72798;BME280;61084;55.816;37.036;2023-04-30T01:19:41;99877.38;;;3.28;57.67
72798;BME280;61084;55.816;37.036;2023-04-30T01:25:06;99886.81;;;3.32;57.47
72798;BME280;61084;55.816;37.036;2023-04-30T01:30:31;99885.19;;;3.25;57.56
72798;BME280;61084;55.816;37.036;2023-04-30T01:32:57;99883.53;;;3.21;57.51
72798;BME280;61084;55.816;37.036;2023-04-30T01:40:43;99874.16;;;3.12;58.06
72798;BME280;61084;55.816;37.036;2023-04-30T01:43:18;99882.00;;;3.08;57.81
72798;BME280;61084;55.816;37.036;2023-04-30T01:46:04;99888.94;;;3.05;57.92
72798;BME280;61084;55.816;37.036;2023-04-30T01:51:40;99881.28;;;2.96;58.00
72798;BME280;61084;55.816;37.036;2023-04-30T01:54:16;99873.50;;;2.96;58.01
72798;BME280;61084;55.816;37.036;2023-04-30T01:56:55;99881.28;;;2.96;58.38
72798;BME280;61084;55.816;37.036;2023-04-30T01:59:27;99876.13;;;2.95;58.18
72798;BME280;61084;55.816;37.036;2023-04-30T02:01:55;99874.44;;;2.92;58.46
72798;BME280;61084;55.816;37.036;2023-04-30T02:04:20;99870.22;;;2.87;58.74
72798;BME280;61084;55.816;37.036;2023-04-30T02:06:46;99869.31;;;2.88;58.54
72798;BME280;61084;55.816;37.036;2023-04-30T02:09:12;99871.94;;;2.86;58.77
72798;BME280;61084;55.816;37.036;2023-04-30T02:11:38;99865.03;;;2.87;58.80
72798;BME280;61084;55.816;37.036;2023-04-30T02:14:04;99871.06;;;2.89;58.45
72798;BME280;61084;55.816;37.036;2023-04-30T02:16:50;99868.41;;;2.92;58.50
72798;BME280;61084;55.816;37.036;2023-04-30T02:19:16;99871.00;;;2.92;58.45
72798;BME280;61084;55.816;37.036;2023-04-30T02:21:42;99870.97;;;2.95;58.08
72798;BME280;61084;55.816;37.036;2023-04-30T02:24:08;99864.91;;;2.94;58.24
72798;BME280;61084;55.816;37.036;2023-04-30T02:26:33;99861.44;;;2.95;58.73
72798;BME280;61084;55.816;37.036;2023-04-30T02:28:59;99856.25;;;2.94;58.56
72798;BME280;61084;55.816;37.036;2023-04-30T02:31:25;99857.13;;;2.94;58.89
72798;BME280;61084;55.816;37.036;2023-04-30T02:33:51;99853.63;;;2.97;58.64
72798;BME280;61084;55.816;37.036;2023-04-30T02:36:17;99848.41;;;2.98;58.73
72798;BME280;61084;55.816;37.036;2023-04-30T02:38:42;99850.97;;;3.01;58.61
72798;BME280;61084;55.816;37.036;2023-04-30T02:41:08;99845.72;;;3.04;58.70
72798;BME280;61084;55.816;37.036;2023-04-30T02:43:34;99848.28;;;3.08;58.65
72798;BME280;61084;55.816;37.036;2023-04-30T02:46:00;99845.66;;;3.11;58.82
72798;BME280;61084;55.816;37.036;2023-04-30T02:48:26;99846.47;;;3.13;59.34
72798;BME280;61084;55.816;37.036;2023-04-30T02:50:52;99849.94;;;3.12;59.57
72798;BME280;61084;55.816;37.036;2023-04-30T02:53:17;99843.00;;;3.14;59.43
72798;BME280;61084;55.816;37.036;2023-04-30T02:55:43;99841.22;;;3.16;59.49
72798;BME280;61084;55.816;37.036;2023-04-30T02:58:09;99833.41;;;3.19;59.82
72798;BME280;61084;55.816;37.036;2023-04-30T03:00:35;99834.22;;;3.24;60.37
72798;BME280;61084;55.816;37.036;2023-04-30T03:03:01;99837.59;;;3.27;60.49
72798;BME280;61084;55.816;37.036;2023-04-30T03:05:27;99834.88;;;3.35;60.02
72798;BME280;61084;55.816;37.036;2023-04-30T03:07:53;99832.97;;;3.44;60.22
72798;BME280;61084;55.816;37.036;2023-04-30T03:10:18;99827.66;;;3.52;60.72
72798;BME280;61084;55.816;37.036;2023-04-30T03:12:45;99828.44;;;3.55;60.25
72798;BME280;61084;55.816;37.036;2023-04-30T03:15:11;99827.44;;;3.64;60.44
72798;BME280;61084;55.816;37.036;2023-04-30T03:17:37;99828.03;;;3.76;60.56
72798;BME280;61084;55.816;37.036;2023-04-30T03:20:03;99818.34;;;3.86;60.28
72798;BME280;61084;55.816;37.036;2023-04-30T03:22:30;99822.47;;;3.98;60.82
72798;BME280;61084;55.816;37.036;2023-04-30T03:24:55;99822.25;;;4.07;60.45
72798;BME280;61084;55.816;37.036;2023-04-30T03:27:21;99823.72;;;4.20;60.58
72798;BME280;61084;55.816;37.036;2023-04-30T03:29:47;99816.59;;;4.29;60.47
72798;BME280;61084;55.816;37.036;2023-04-30T03:32:13;99812.09;;;4.39;61.04
72798;BME280;61084;55.816;37.036;2023-04-30T03:34:39;99806.69;;;4.46;60.80
72798;BME280;61084;55.816;37.036;2023-04-30T03:37:05;99808.22;;;4.56;60.81
72798;BME280;61084;55.816;37.036;2023-04-30T03:39:31;99801.16;;;4.63;61.72
72798;BME280;61084;55.816;37.036;2023-04-30T03:41:56;99801.78;;;4.73;61.58
72798;BME280;61084;55.816;37.036;2023-04-30T03:44:22;99788.56;;;4.82;61.46
72798;BME280;61084;55.816;37.036;2023-04-30T03:46:48;99782.19;;;4.95;61.39
72798;BME280;61084;55.816;37.036;2023-04-30T03:49:14;99780.94;;;5.09;61.19
72798;BME280;61084;55.816;37.036;2023-04-30T03:51:40;99779.78;;;5.21;61.69
72798;BME280;61084;55.816;37.036;2023-04-30T03:54:07;99779.41;;;5.36;61.21
72798;BME280;61084;55.816;37.036;2023-04-30T03:56:36;99781.59;;;5.51;61.03
72798;BME280;61084;55.816;37.036;2023-04-30T03:59:02;99781.13;;;5.68;61.25
72798;BME280;61084;55.816;37.036;2023-04-30T04:01:30;99776.38;;;5.85;61.12
72798;BME280;61084;55.816;37.036;2023-04-30T04:03:57;99779.38;;;6.00;60.23
72798;BME280;61084;55.816;37.036;2023-04-30T04:06:23;99772.91;;;6.15;60.19
72798;BME280;61084;55.816;37.036;2023-04-30T04:08:49;99784.53;;;6.33;60.12
72798;BME280;61084;55.816;37.036;2023-04-30T04:11:15;99782.31;;;6.48;60.10
72798;BME280;61084;55.816;37.036;2023-04-30T04:13:40;99780.16;;;6.62;59.81
72798;BME280;61084;55.816;37.036;2023-04-30T04:16:06;99778.00;;;6.75;59.65
72798;BME280;61084;55.816;37.036;2023-04-30T04:18:34;99779.22;;;6.91;59.41
72798;BME280;61084;55.816;37.036;2023-04-30T04:20:59;99778.75;;;7.05;59.04
72798;BME280;61084;55.816;37.036;2023-04-30T04:23:30;99777.31;;;7.22;58.92
72798;BME280;61084;55.816;37.036;2023-04-30T04:25:56;99775.91;;;7.38;58.37
72798;BME280;61084;55.816;37.036;2023-04-30T04:28:23;99774.47;;;7.54;58.10
72798;BME280;61084;55.816;37.036;2023-04-30T04:30:49;99773.16;;;7.68;58.60
72798;BME280;61084;55.816;37.036;2023-04-30T04:33:15;99765.66;;;7.82;58.21
72798;BME280;61084;55.816;37.036;2023-04-30T04:35:43;99769.47;;;7.96;57.75
72798;BME280;61084;55.816;37.036;2023-04-30T04:38:09;99763.81;;;8.08;57.17
72798;BME280;61084;55.816;37.036;2023-04-30T04:40:35;99761.50;;;8.22;56.92
72798;BME280;61084;55.816;37.036;2023-04-30T04:43:01;99772.53;;;8.32;56.44
72798;BME280;61084;55.816;37.036;2023-04-30T04:45:28;99760.84;;;8.41;56.64
72798;BME280;61084;55.816;37.036;2023-04-30T04:47:54;99761.31;;;8.52;56.04
72798;BME280;61084;55.816;37.036;2023-04-30T04:50:20;99760.88;;;8.62;56.13
72798;BME280;61084;55.816;37.036;2023-04-30T04:52:46;99755.34;;;8.70;56.25
72798;BME280;61084;55.816;37.036;2023-04-30T04:55:12;99757.59;;;8.79;55.94
72798;BME280;61084;55.816;37.036;2023-04-30T04:57:38;99752.91;;;8.87;55.87
72798;BME280;61084;55.816;37.036;2023-04-30T05:00:04;99760.19;;;9.00;55.81
72798;BME280;61084;55.816;37.036;2023-04-30T05:02:33;99755.25;;;9.15;55.65
72798;BME280;61084;55.816;37.036;2023-04-30T05:04:59;99759.06;;;9.28;55.47
72798;BME280;61084;55.816;37.036;2023-04-30T05:07:27;99760.31;;;9.39;55.44
72798;BME280;61084;55.816;37.036;2023-04-30T05:09:54;99768.50;;;9.52;55.19
72798;BME280;61084;55.816;37.036;2023-04-30T05:12:20;99761.91;;;9.63;55.07
72798;BME280;61084;55.816;37.036;2023-04-30T05:14:46;99764.63;;;9.80;54.35
72798;BME280;61084;55.816;37.036;2023-04-30T05:17:12;99760.47;;;9.95;54.44
72798;BME280;61084;55.816;37.036;2023-04-30T05:19:38;99764.25;;;10.08;53.99
72798;BME280;61084;55.816;37.036;2023-04-30T05:22:03;99761.81;;;10.24;53.93
72798;BME280;61084;55.816;37.036;2023-04-30T05:24:29;99757.75;;;10.35;53.51
72798;BME280;61084;55.816;37.036;2023-04-30T05:26:55;99757.97;;;10.49;53.27
72798;BME280;61084;55.816;37.036;2023-04-30T05:29:21;99762.59;;;10.63;53.11
72798;BME280;61084;55.816;37.036;2023-04-30T05:31:47;99760.16;;;10.77;53.26
72798;BME280;61084;55.816;37.036;2023-04-30T05:34:13;99751.69;;;10.89;53.11
72798;BME280;61084;55.816;37.036;2023-04-30T05:36:38;99758.81;;;11.04;52.92
72798;BME280;61084;55.816;37.036;2023-04-30T05:39:04;99754.66;;;11.17;52.33
72798;BME280;61084;55.816;37.036;2023-04-30T05:41:30;99754.03;;;11.29;52.24
72798;BME280;61084;55.816;37.036;2023-04-30T05:43:56;99759.63;;;11.41;52.07
72798;BME280;61084;55.816;37.036;2023-04-30T05:46:22;99759.84;;;11.53;51.91
72798;BME280;61084;55.816;37.036;2023-04-30T05:48:47;99754.97;;;11.63;51.61
72798;BME280;61084;55.816;37.036;2023-04-30T05:51:13;99754.59;;;11.70;51.54
72798;BME280;61084;55.816;37.036;2023-04-30T05:53:39;99749.72;;;11.80;51.53
72798;BME280;61084;55.816;37.036;2023-04-30T05:56:05;99743.13;;;11.88;50.87
72798;BME280;61084;55.816;37.036;2023-04-30T05:58:31;99749.59;;;11.98;50.82
72798;BME280;61084;55.816;37.036;2023-04-30T06:00:57;99741.72;;;12.14;51.17
72798;BME280;61084;55.816;37.036;2023-04-30T06:03:23;99745.41;;;12.27;50.81
72798;BME280;61084;55.816;37.036;2023-04-30T06:05:49;99747.38;;;12.39;50.78
72798;BME280;61084;55.816;37.036;2023-04-30T06:08:15;99738.28;;;12.45;49.85
72798;BME280;61084;55.816;37.036;2023-04-30T06:10:41;99743.81;;;12.56;49.68
72798;BME280;61084;55.816;37.036;2023-04-30T06:13:07;99750.09;;;12.69;49.22
72798;BME280;61084;55.816;37.036;2023-04-30T06:15:33;99753.13;;;12.77;48.61
72798;BME280;61084;55.816;37.036;2023-04-30T06:17:59;99752.47;;;12.89;49.10
72798;BME280;61084;55.816;37.036;2023-04-30T06:20:25;99752.88;;;12.97;48.57
72798;BME280;61084;55.816;37.036;2023-04-30T06:22:52;99748.94;;;13.04;48.41
72798;BME280;61084;55.816;37.036;2023-04-30T06:25:18;99756.16;;;13.16;47.89
72798;BME280;61084;55.816;37.036;2023-04-30T06:27:46;99749.63;;;13.23;48.02
72798;BME280;61084;55.816;37.036;2023-04-30T06:30:12;99748.06;;;13.35;47.21
72798;BME280;61084;55.816;37.036;2023-04-30T06:32:38;99753.28;;;13.50;47.69
72798;BME280;61084;55.816;37.036;2023-04-30T06:35:04;99755.34;;;13.59;47.16
72798;BME280;61084;55.816;37.036;2023-04-30T06:37:31;99755.28;;;13.75;47.16
72798;BME280;61084;55.816;37.036;2023-04-30T06:40:05;99756.72;;;13.81;46.35
72798;BME280;61084;55.816;37.036;2023-04-30T06:42:32;99754.09;;;13.81;46.46
72798;BME280;61084;55.816;37.036;2023-04-30T06:45:02;99752.59;;;13.91;46.46
72798;BME280;61084;55.816;37.036;2023-04-30T06:47:31;99746.84;;;13.98;45.48
72798;BME280;61084;55.816;37.036;2023-04-30T06:50:03;99746.53;;;14.03;45.27
72798;BME280;61084;55.816;37.036;2023-04-30T06:52:30;99743.72;;;14.06;44.82
72798;BME280;61084;55.816;37.036;2023-04-30T06:54:56;99739.78;;;14.13;46.17
72798;BME280;61084;55.816;37.036;2023-04-30T06:57:22;99736.28;;;14.12;45.65
72798;BME280;61084;55.816;37.036;2023-04-30T06:59:49;99735.25;;;14.15;43.70
72798;BME280;61084;55.816;37.036;2023-04-30T07:02:14;99732.50;;;14.16;44.78
72798;BME280;61084;55.816;37.036;2023-04-30T07:04:40;99727.22;;;14.16;43.81
72798;BME280;61084;55.816;37.036;2023-04-30T07:07:06;99717.22;;;14.21;44.41
72798;BME280;61084;55.816;37.036;2023-04-30T07:09:50;99719.69;;;14.24;43.17
72798;BME280;61084;55.816;37.036;2023-04-30T07:12:19;99704.78;;;14.23;44.73
72798;BME280;61084;55.816;37.036;2023-04-30T07:14:45;99711.09;;;14.21;43.45
72798;BME280;61084;55.816;37.036;2023-04-30T07:17:11;99703.28;;;14.19;43.25
72798;BME280;61084;55.816;37.036;2023-04-30T07:19:37;99696.50;;;14.15;43.71
72798;BME280;61084;55.816;37.036;2023-04-30T07:22:03;99695.06;;;14.10;43.59
72798;BME280;61084;55.816;37.036;2023-04-30T07:24:29;99693.63;;;14.18;43.53
72798;BME280;61084;55.816;37.036;2023-04-30T07:26:55;99684.69;;;14.21;43.22
72798;BME280;61084;55.816;37.036;2023-04-30T07:29:21;99680.56;;;14.31;43.37
72798;BME280;61084;55.816;37.036;2023-04-30T07:31:47;99681.97;;;14.37;43.24
72798;BME280;61084;55.816;37.036;2023-04-30T07:34:12;99678.47;;;14.36;42.83
72798;BME280;61084;55.816;37.036;2023-04-30T07:36:38;99681.00;;;14.38;43.23
72798;BME280;61084;55.816;37.036;2023-04-30T07:39:04;99671.97;;;14.42;42.76
72798;BME280;61084;55.816;37.036;2023-04-30T07:41:31;99671.34;;;14.51;43.13
72798;BME280;61084;55.816;37.036;2023-04-30T07:43:56;99672.00;;;14.54;42.55
72798;BME280;61084;55.816;37.036;2023-04-30T07:46:23;99659.13;;;14.62;42.36
72798;BME280;61084;55.816;37.036;2023-04-30T07:48:49;99657.91;;;14.68;42.50
72798;BME280;61084;55.816;37.036;2023-04-30T07:51:15;99656.75;;;14.72;42.46
72798;BME280;61084;55.816;37.036;2023-04-30T07:53:41;99651.25;;;14.75;42.30
72798;BME280;61084;55.816;37.036;2023-04-30T07:56:07;99647.66;;;14.76;42.35
72798;BME280;61084;55.816;37.036;2023-04-30T07:58:33;99640.69;;;14.75;42.18
72798;BME280;61084;55.816;37.036;2023-04-30T08:00:59;99630.22;;;14.73;41.67
72798;BME280;61084;55.816;37.036;2023-04-30T08:03:24;99625.50;;;14.78;42.29
72798;BME280;61084;55.816;37.036;2023-04-30T08:05:51;99627.47;;;14.75;41.55
72798;BME280;61084;55.816;37.036;2023-04-30T08:08:17;99621.13;;;14.77;41.71
72798;BME280;61084;55.816;37.036;2023-04-30T08:10:43;99617.56;;;14.78;41.28
72798;BME280;61084;55.816;37.036;2023-04-30T08:13:08;99610.69;;;14.76;40.61
72798;BME280;61084;55.816;37.036;2023-04-30T08:15:34;99601.78;;;14.77;41.01
72798;BME280;61084;55.816;37.036;2023-04-30T08:18:01;99596.31;;;14.80;41.75
72798;BME280;61084;55.816;37.036;2023-04-30T08:20:27;99591.63;;;14.71;39.69
72798;BME280;61084;55.816;37.036;2023-04-30T08:22:53;99587.06;;;14.60;40.40
72798;BME280;61084;55.816;37.036;2023-04-30T08:25:19;99581.34;;;14.54;40.64
72798;BME280;61084;55.816;37.036;2023-04-30T08:27:45;99579.97;;;14.48;40.30
72798;BME280;61084;55.816;37.036;2023-04-30T08:30:11;99573.59;;;14.51;41.01
72798;BME280;61084;55.816;37.036;2023-04-30T08:32:37;99565.78;;;14.49;40.34
72798;BME280;61084;55.816;37.036;2023-04-30T08:35:06;99557.97;;;14.48;41.48
72798;BME280;61084;55.816;37.036;2023-04-30T08:37:32;99568.22;;;14.40;40.86
72798;BME280;61084;55.816;37.036;2023-04-30T08:39:58;99560.59;;;14.35;40.65
72798;BME280;61084;55.816;37.036;2023-04-30T08:42:30;99555.31;;;14.35;40.96
72798;BME280;61084;55.816;37.036;2023-04-30T08:44:58;99565.00;;;14.34;40.63
72798;BME280;61084;55.816;37.036;2023-04-30T08:47:26;99556.34;;;14.32;40.71
72798;BME280;61084;55.816;37.036;2023-04-30T08:49:52;99551.81;;;14.34;40.82
72798;BME280;61084;55.816;37.036;2023-04-30T08:52:18;99548.94;;;14.38;40.33
72798;BME280;61084;55.816;37.036;2023-04-30T08:54:45;99544.09;;;14.44;40.16
72798;BME280;61084;55.816;37.036;2023-04-30T08:57:11;99534.75;;;14.53;40.56
72798;BME280;61084;55.816;37.036;2023-04-30T08:59:37;99540.03;;;14.53;40.03
72798;BME280;61084;55.816;37.036;2023-04-30T09:02:04;99531.78;;;14.57;39.95
72798;BME280;61084;55.816;37.036;2023-04-30T09:04:30;99535.06;;;14.61;39.89
72798;BME280;61084;55.816;37.036;2023-04-30T09:07:15;99534.97;;;14.62;39.79
72798;BME280;61084;55.816;37.036;2023-04-30T09:09:41;99531.09;;;14.68;40.04
72798;BME280;61084;55.816;37.036;2023-04-30T09:12:16;99526.63;;;14.68;39.96
72798;BME280;61084;55.816;37.036;2023-04-30T09:15:02;99518.25;;;14.62;39.40
72798;BME280;61084;55.816;37.036;2023-04-30T09:17:32;99526.72;;;14.54;39.63
72798;BME280;61084;55.816;37.036;2023-04-30T09:20:12;99518.34;;;14.48;39.05
72798;BME280;61084;55.816;37.036;2023-04-30T09:22:39;99505.03;;;14.49;39.94
72798;BME280;61084;55.816;37.036;2023-04-30T09:25:07;99506.81;;;14.49;40.68
72798;BME280;61084;55.816;37.036;2023-04-30T09:30:30;99494.16;;;14.41;39.36
72798;BME280;61084;55.816;37.036;2023-04-30T09:32:57;99482.84;;;14.39;39.46
72798;BME280;61084;55.816;37.036;2023-04-30T09:35:30;99479.16;;;14.42;39.31
72798;BME280;61084;55.816;37.036;2023-04-30T09:38:44;99468.38;;;14.45;39.55
72798;BME280;61084;55.816;37.036;2023-04-30T09:41:27;99459.94;;;14.40;38.96
72798;BME280;61084;55.816;37.036;2023-04-30T09:43:55;99460.00;;;14.38;39.92
72798;BME280;61084;55.816;37.036;2023-04-30T09:46:29;99463.69;;;14.35;39.68
72798;BME280;61084;55.816;37.036;2023-04-30T09:49:00;99459.75;;;14.28;39.75
72798;BME280;61084;55.816;37.036;2023-04-30T09:51:27;99459.09;;;14.25;39.51
72798;BME280;61084;55.816;37.036;2023-04-30T09:56:38;99450.84;;;14.17;38.05
72798;BME280;61084;55.816;37.036;2023-04-30T09:59:35;99451.16;;;14.12;38.83
72798;BME280;61084;55.816;37.036;2023-04-30T10:02:07;99440.50;;;14.14;39.39
72798;BME280;61084;55.816;37.036;2023-04-30T10:04:38;99440.72;;;14.11;39.38
72798;BME280;61084;55.816;37.036;2023-04-30T10:07:14;99436.38;;;14.10;39.07
72798;BME280;61084;55.816;37.036;2023-04-30T10:12:21;99429.59;;;14.06;38.27
72798;BME280;61084;55.816;37.036;2023-04-30T10:17:40;99437.41;;;14.07;39.13
72798;BME280;61084;55.816;37.036;2023-04-30T10:20:09;99432.06;;;14.09;39.43
72798;BME280;61084;55.816;37.036;2023-04-30T10:22:37;99435.31;;;14.12;39.49
72798;BME280;61084;55.816;37.036;2023-04-30T10:25:06;99441.34;;;14.14;39.61
72798;BME280;61084;55.816;37.036;2023-04-30T10:27:36;99430.78;;;14.14;39.30
72798;BME280;61084;55.816;37.036;2023-04-30T10:30:01;99426.47;;;14.13;39.51
72798;BME280;61084;55.816;37.036;2023-04-30T10:32:37;99435.31;;;14.12;39.43
72798;BME280;61084;55.816;37.036;2023-04-30T10:35:10;99424.56;;;14.15;39.35
72798;BME280;61084;55.816;37.036;2023-04-30T10:37:47;99424.56;;;14.15;39.45
72798;BME280;61084;55.816;37.036;2023-04-30T10:40:17;99436.28;;;14.11;39.60
72798;BME280;61084;55.816;37.036;2023-04-30T10:42:53;99427.41;;;14.12;38.94
72798;BME280;61084;55.816;37.036;2023-04-30T10:45:34;99437.78;;;14.15;39.48
72798;BME280;61084;55.816;37.036;2023-04-30T10:50:57;99436.72;;;14.18;39.47
72798;BME280;61084;55.816;37.036;2023-04-30T10:53:24;99437.53;;;14.18;39.98
72798;BME280;61084;55.816;37.036;2023-04-30T10:55:56;99440.31;;;14.17;38.84
72798;BME280;61084;55.816;37.036;2023-04-30T11:01:10;99441.47;;;14.13;39.25
72798;BME280;61084;55.816;37.036;2023-04-30T11:03:37;99441.34;;;14.14;39.22
72798;BME280;61084;55.816;37.036;2023-04-30T11:06:15;99422.88;;;14.14;38.86
72798;BME280;61084;55.816;37.036;2023-04-30T11:08:45;99425.00;;;14.22;39.16
72798;BME280;61084;55.816;37.036;2023-04-30T11:11:11;99420.06;;;14.30;39.37
72798;BME280;61084;55.816;37.036;2023-04-30T11:13:58;99424.09;;;14.35;39.75
72798;BME280;61084;55.816;37.036;2023-04-30T11:16:33;99417.75;;;14.38;39.30
72798;BME280;61084;55.816;37.036;2023-04-30T11:19:09;99418.59;;;14.39;39.23
72798;BME280;61084;55.816;37.036;2023-04-30T11:27:33;99409.94;;;14.49;39.19
72798;BME280;61084;55.816;37.036;2023-04-30T11:30:02;99410.59;;;14.53;39.40
72798;BME280;61084;55.816;37.036;2023-04-30T11:32:35;99405.63;;;14.48;39.93
72798;BME280;61084;55.816;37.036;2023-04-30T11:37:47;99400.22;;;14.37;38.81
72798;BME280;61084;55.816;37.036;2023-04-30T11:40:13;99400.22;;;14.37;38.87
72798;BME280;61084;55.816;37.036;2023-04-30T11:42:41;99402.88;;;14.37;39.27
72798;BME280;61084;55.816;37.036;2023-04-30T11:45:10;99395.25;;;14.32;38.96
72798;BME280;61084;55.816;37.036;2023-04-30T11:47:47;99394.53;;;14.30;38.73
72798;BME280;61084;55.816;37.036;2023-04-30T11:50:19;99393.94;;;14.25;38.83
72798;BME280;61084;55.816;37.036;2023-04-30T11:52:50;99386.69;;;14.29;38.91
72798;BME280;61084;55.816;37.036;2023-04-30T11:55:19;99379.53;;;14.31;39.24
72798;BME280;61084;55.816;37.036;2023-04-30T11:57:48;99377.47;;;14.22;38.71
72798;BME280;61084;55.816;37.036;2023-04-30T12:00:19;99377.88;;;14.16;38.81
72798;BME280;61084;55.816;37.036;2023-04-30T12:02:48;99372.72;;;14.14;38.97
72798;BME280;61084;55.816;37.036;2023-04-30T12:05:22;99371.13;;;14.12;38.89
72798;BME280;61084;55.816;37.036;2023-04-30T12:10:23;99377.38;;;14.11;39.13
72798;BME280;61084;55.816;37.036;2023-04-30T12:12:52;99366.88;;;14.09;39.27
72798;BME280;61084;55.816;37.036;2023-04-30T12:15:21;99358.66;;;14.14;39.30
72798;BME280;61084;55.816;37.036;2023-04-30T12:17:51;99344.09;;;14.08;39.24
72798;BME280;61084;55.816;37.036;2023-04-30T12:20:19;99345.25;;;14.04;39.42
72798;BME280;61084;55.816;37.036;2023-04-30T12:22:49;99349.56;;;14.05;39.00
72798;BME280;61084;55.816;37.036;2023-04-30T12:25:17;99346.94;;;14.05;39.36
72798;BME280;61084;55.816;37.036;2023-04-30T12:27:49;99350.31;;;14.07;39.12
72798;BME280;61084;55.816;37.036;2023-04-30T12:30:23;99349.50;;;14.07;39.08
72798;BME280;61084;55.816;37.036;2023-04-30T12:32:52;99344.22;;;14.07;39.30
72798;BME280;61084;55.816;37.036;2023-04-30T12:35:21;99337.84;;;14.09;39.18
72798;BME280;61084;55.816;37.036;2023-04-30T12:37:49;99333.53;;;14.08;39.29
72798;BME280;61084;55.816;37.036;2023-04-30T12:40:18;99337.84;;;14.09;39.70
72798;BME280;61084;55.816;37.036;2023-04-30T12:42:44;99343.13;;;14.09;39.39
72798;BME280;61084;55.816;37.036;2023-04-30T12:45:12;99337.84;;;14.09;39.61
72798;BME280;61084;55.816;37.036;2023-04-30T12:47:58;99342.00;;;14.13;39.85
72798;BME280;61084;55.816;37.036;2023-04-30T12:50:23;99333.22;;;14.13;39.53
72798;BME280;61084;55.816;37.036;2023-04-30T12:52:49;99324.34;;;14.14;39.54
72798;BME280;61084;55.816;37.036;2023-04-30T12:55:19;99315.69;;;14.12;39.68
72798;BME280;61084;55.816;37.036;2023-04-30T12:58:06;99322.97;;;14.08;39.74
72798;BME280;61084;55.816;37.036;2023-04-30T13:00:50;99314.31;;;14.06;39.44
72798;BME280;61084;55.816;37.036;2023-04-30T13:03:18;99297.94;;;14.01;39.56
72798;BME280;61084;55.816;37.036;2023-04-30T13:05:50;99300.69;;;14.00;39.55
72798;BME280;61084;55.816;37.036;2023-04-30T13:08:17;99305.00;;;14.01;39.72
72798;BME280;61084;55.816;37.036;2023-04-30T13:10:44;99312.31;;;13.97;39.53
72798;BME280;61084;55.816;37.036;2023-04-30T13:13:12;99314.31;;;13.94;39.81
72798;BME280;61084;55.816;37.036;2023-04-30T13:15:38;99310.84;;;13.93;39.59
72798;BME280;61084;55.816;37.036;2023-04-30T13:18:04;99307.44;;;13.91;39.60
72798;BME280;61084;55.816;37.036;2023-04-30T13:20:36;99303.22;;;13.89;39.80
72798;BME280;61084;55.816;37.036;2023-04-30T13:23:03;99302.19;;;13.91;39.87
72798;BME280;61084;55.816;37.036;2023-04-30T13:25:29;99286.22;;;13.93;40.02
72798;BME280;61084;55.816;37.036;2023-04-30T13:27:55;99293.09;;;13.95;39.96
72798;BME280;61084;55.816;37.036;2023-04-30T13:30:22;99289.50;;;13.96;40.04
72798;BME280;61084;55.816;37.036;2023-04-30T13:32:48;99290.34;;;13.97;39.91
72798;BME280;61084;55.816;37.036;2023-04-30T13:35:14;99292.25;;;13.95;40.30
72798;BME280;61084;55.816;37.036;2023-04-30T13:37:40;99276.84;;;13.89;40.15
72798;BME280;61084;55.816;37.036;2023-04-30T13:42:51;99260.56;;;13.82;40.00
72798;BME280;61084;55.816;37.036;2023-04-30T13:45:17;99256.34;;;13.80;39.78
72798;BME280;61084;55.816;37.036;2023-04-30T13:47:43;99254.56;;;13.80;40.05